Mt Bomar Mars — 9HCM9 — position and weather

sailwx.info

Track history (hours):
 
Tides and Currents Weather Stations Pressure Air Temp Water Temp Dewpoint Dewpoint Depression Visibility Wind Speed Wind Dir Waves Ship Positions

Mt Bomar Mars

Last reported at 2015-Mar-23 14:29 UTC. Time now 2015-Mar-26 23:47 UTC.
Position N 38°54' W 009°60'.

Length 107 m; draft 6.9 m.

Type: Ship. MMSI: 256784000.

Date/timePositionNaut miles runAvg speedWind from/ knotsBaromVisibWave heightAir tempDewpointWater temp
2015-Mar-23 14:29N 38°54' W 009°60'7 7.2
2015-Mar-23 13:33N 38°48' W 009°55'7 7.1
2015-Mar-23 12:33N 38°41' W 009°55'8 8.2
2015-Mar-23 11:33N 38°33' W 009°53'9 8.8
2015-Mar-23 10:33N 38°24' W 009°51'10 9.3
2015-Mar-23 09:28N 38°14' W 009°49'10 9.7
2015-Mar-23 08:27N 38°05' W 009°46'9 9.7
2015-Mar-23 07:31N 37°56' W 009°43'1010.1
2015-Mar-23 06:33N 37°46' W 009°40'1310.6
2015-Mar-23 05:21N 37°34' W 009°37'910.8
2015-Mar-23 04:32N 37°25' W 009°34'5210.1
2015-Mar-22 23:22N 36°39' W 009°04'911.5
2015-Mar-22 22:33N 36°37' W 008°53'1211.1
2015-Mar-22 21:31N 36°34' W 008°39'15110.5
2015-Mar-22 07:10N 35°58' W 005°37'5 8.0
2015-Mar-22 06:34N 35°59' W 005°31'8 8.2
2015-Mar-22 05:34N 36°01' W 005°21'7 6.5
2015-Mar-22 04:34N 36°03' W 005°13'21210.1
2015-Mar-21 07:32N 37°13' W 001°04'1111.3
2015-Mar-21 06:33N 37°21' W 000°54'1211.7
2015-Mar-21 05:33N 37°28' W 000°42'1211.9
2015-Mar-21 04:33N 37°36' W 000°31'1111.2
2015-Mar-21 03:32N 37°46' W 000°24'1110.9
2015-Mar-21 02:31N 37°55' W 000°16'12611.4
2015-Mar-20 15:28N 39°43' E 001°08'1010.9
2015-Mar-20 14:33N 39°52' E 001°15'1110.8
2015-Mar-20 13:33N 40°01' E 001°23'1111.3
2015-Mar-20 12:33N 40°11' E 001°30'1110.8
2015-Mar-20 11:33N 40°20' E 001°38'1110.6
2015-Mar-20 10:30N 40°28' E 001°48'1111.9
2015-Mar-20 09:33N 40°37' E 001°57'1212.4
2015-Mar-20 08:33N 40°46' E 002°08'1313.0
2015-Mar-20 07:33N 40°52' E 002°23'1312.7
2015-Mar-20 06:33N 40°59' E 002°37'1312.8
2015-Mar-20 05:32N 41°10' E 002°46'1412.6
2015-Mar-20 04:26N 41°21' E 002°57'8213.0
2015-Mar-19 22:07N 42°25' E 004°07'1212.7
2015-Mar-19 21:10N 42°34' E 004°17'1413.1
2015-Mar-19 20:06N 42°45' E 004°29'812.7
2015-Mar-19 19:27N 42°51' E 004°36'1312.3
2015-Mar-19 18:26N 43°01' E 004°48'1112.3
2015-Mar-19 17:33N 43°09' E 004°57'1111.3
2015-Mar-19 16:34N 43°20' E 004°58'8 3.8
2015-Mar-19 14:23N 43°26' E 004°50'0 0.0
2015-Mar-19 13:20N 43°26' E 004°50'0 0.0
2015-Mar-19 12:26N 43°26' E 004°50'0 0.0
2015-Mar-19 11:32N 43°26' E 004°50'0 0.0
2015-Mar-19 10:14N 43°26' E 004°50'0 0.0
2015-Mar-19 09:20N 43°26' E 004°50'0 0.0
2015-Mar-19 08:29N 43°26' E 004°50'0 0.0
2015-Mar-19 07:32N 43°26' E 004°50'0 0.0
2015-Mar-19 06:26N 43°26' E 004°50'0 0.0
2015-Mar-19 05:26N 43°26' E 004°50'0 0.0
2015-Mar-19 04:32N 43°26' E 004°50'0 0.0
2015-Mar-19 03:32N 43°26' E 004°50'0 0.0
2015-Mar-19 02:32N 43°26' E 004°50'0 0.0
2015-Mar-19 01:32N 43°26' E 004°50'0 0.0
2015-Mar-19 00:32N 43°26' E 004°50'0 0.0
2015-Mar-18 23:11N 43°26' E 004°50'0 0.0
2015-Mar-18 22:32N 43°26' E 004°50'4 4.1
2015-Mar-18 21:32N 43°25' E 004°56'0 0.0
2015-Mar-18 20:32N 43°25' E 004°56'0 0.0
2015-Mar-18 19:32N 43°25' E 004°56'0 0.0
2015-Mar-18 18:32N 43°25' E 004°56'0 0.0
2015-Mar-18 17:32N 43°25' E 004°56'0 0.0
2015-Mar-18 16:32N 43°25' E 004°56'0 0.0
2015-Mar-18 15:32N 43°25' E 004°56'0 0.0
2015-Mar-18 14:32N 43°25' E 004°56'0 0.0
2015-Mar-18 13:32N 43°25' E 004°56'0 0.0
2015-Mar-18 12:32N 43°25' E 004°56'0 0.0
2015-Mar-18 11:32N 43°25' E 004°56'0 0.0
2015-Mar-18 10:32N 43°25' E 004°56'0 0.0
2015-Mar-18 09:32N 43°25' E 004°56'0 0.1
2015-Mar-18 08:32N 43°25' E 004°55'0 0.0
2015-Mar-18 07:32N 43°25' E 004°55'0 0.0
2015-Mar-18 06:32N 43°25' E 004°55'0 0.0
2015-Mar-18 05:32N 43°25' E 004°55'0 0.0
2015-Mar-18 04:29N 43°25' E 004°55'0 0.0
2015-Mar-18 03:29N 43°25' E 004°55'0 0.0
2015-Mar-18 02:33N 43°25' E 004°55'0 0.1
2015-Mar-18 01:32N 43°25' E 004°56'0 0.0
2015-Mar-18 00:32N 43°25' E 004°56'0 0.0
2015-Mar-17 23:32N 43°25' E 004°56'0 0.0
2015-Mar-17 22:33N 43°25' E 004°56'0 0.0
2015-Mar-17 21:33N 43°25' E 004°56'0 0.0
2015-Mar-17 20:33N 43°25' E 004°56'0 0.0
2015-Mar-17 19:32N 43°25' E 004°56'0 0.0
2015-Mar-17 18:33N 43°25' E 004°56'0 0.1
2015-Mar-17 17:32N 43°25' E 004°56'0 0.0
2015-Mar-17 16:32N 43°25' E 004°56'0 0.1
2015-Mar-17 15:32N 43°25' E 004°56'0 0.0
2015-Mar-17 14:32N 43°25' E 004°56'0 0.0
2015-Mar-17 13:29N 43°25' E 004°56'0 0.0
2015-Mar-17 12:29N 43°25' E 004°56'0 0.0
2015-Mar-17 11:32N 43°25' E 004°56'0 0.0
2015-Mar-17 10:32N 43°25' E 004°56'0 0.0
2015-Mar-17 09:32N 43°25' E 004°56'0 0.0
2015-Mar-17 08:32N 43°25' E 004°55'0 0.0
2015-Mar-17 07:32N 43°25' E 004°56'0 0.0
2015-Mar-17 06:32N 43°25' E 004°56'0 0.0
2015-Mar-17 05:32N 43°25' E 004°56'0 0.1
2015-Mar-17 04:32N 43°25' E 004°56'0 0.1
2015-Mar-17 03:32N 43°25' E 004°56'0 0.0
2015-Mar-17 02:32N 43°25' E 004°55'0 0.0
2015-Mar-17 01:32N 43°25' E 004°55'0 0.1
2015-Mar-17 00:32N 43°25' E 004°55'0 0.0
2015-Mar-16 23:32N 43°25' E 004°55'0 0.0
2015-Mar-16 22:32N 43°25' E 004°55'0 0.0
2015-Mar-16 21:32N 43°25' E 004°55'0 0.0
2015-Mar-16 20:32N 43°25' E 004°55'0 0.0
2015-Mar-16 19:32N 43°25' E 004°56'0 0.0
2015-Mar-16 18:32N 43°25' E 004°56'0 0.1
2015-Mar-16 17:32N 43°25' E 004°56'0 0.0
2015-Mar-16 16:32N 43°25' E 004°56'0 0.1
2015-Mar-16 15:32N 43°25' E 004°56'0 0.0
2015-Mar-16 14:32N 43°25' E 004°56'0 0.0
2015-Mar-16 13:32N 43°25' E 004°56'0 0.0
2015-Mar-16 12:32N 43°25' E 004°56'2 1.7
2015-Mar-16 11:32N 43°25' E 004°53'0 0.0
2015-Mar-16 10:32N 43°25' E 004°53'0 0.0
2015-Mar-16 09:32N 43°25' E 004°53'0 0.0
2015-Mar-16 08:32N 43°25' E 004°53'0 0.0
2015-Mar-16 07:32N 43°25' E 004°53'2 1.7
2015-Mar-16 06:34N 43°25' E 004°56'0 0.2
2015-Mar-16 05:31N 43°25' E 004°56'0 0.0
2015-Mar-16 04:31N 43°25' E 004°55'0 0.0
2015-Mar-16 03:28N 43°25' E 004°55'0 0.0
2015-Mar-16 02:31N 43°25' E 004°55'0 0.0
2015-Mar-16 01:31N 43°25' E 004°55'0 0.0
2015-Mar-16 00:33N 43°25' E 004°55'0 0.0
2015-Mar-15 23:33N 43°25' E 004°55'0 0.1
2015-Mar-15 22:33N 43°25' E 004°55'0 0.1
2015-Mar-15 21:33N 43°25' E 004°56'0 0.0
2015-Mar-15 20:33N 43°25' E 004°56'0 0.0
2015-Mar-15 19:33N 43°25' E 004°56'2 1.7
2015-Mar-15 18:33N 43°24' E 004°54'1 1.2
2015-Mar-15 17:32N 43°25' E 004°53'0 0.0
2015-Mar-15 16:29N 43°25' E 004°53'0 0.0
2015-Mar-15 15:32N 43°25' E 004°53'0 0.0
2015-Mar-15 14:29N 43°25' E 004°53'0 0.0
2015-Mar-15 13:20N 43°25' E 004°53'0 0.0
2015-Mar-15 12:33N 43°25' E 004°53'3 2.9
2015-Mar-15 11:33N 43°24' E 004°57'2 2.1
2015-Mar-15 10:33N 43°24' E 004°60'0 0.0
2015-Mar-15 09:33N 43°24' E 004°60'0 0.0
2015-Mar-15 08:33N 43°24' E 004°60'0 0.0
2015-Mar-15 07:33N 43°24' E 004°60'0 0.0
2015-Mar-15 06:34N 43°24' E 004°60'0 0.0
2015-Mar-15 05:33N 43°24' E 004°60'0 0.0
2015-Mar-15 04:33N 43°24' E 004°60'0 0.0
2015-Mar-15 03:34N 43°24' E 004°60'0 0.0
2015-Mar-15 02:34N 43°24' E 004°60'0 0.0
2015-Mar-15 01:33N 43°24' E 004°60'0 0.0
2015-Mar-15 00:33N 43°24' E 004°60'0 0.0
2015-Mar-14 23:33N 43°24' E 004°60'0 0.0
2015-Mar-14 22:33N 43°24' E 004°60'0 0.0
2015-Mar-14 21:33N 43°24' E 004°60'0 0.0
2015-Mar-14 20:33N 43°24' E 004°60'0 0.0
2015-Mar-14 19:34N 43°24' E 004°60'0 0.0
2015-Mar-14 18:34N 43°24' E 004°60'0 0.0
2015-Mar-14 17:34N 43°24' E 004°60'0 0.0
2015-Mar-14 16:34N 43°24' E 004°60'0 0.0
2015-Mar-14 15:33N 43°24' E 004°60'0 0.0
2015-Mar-14 14:34N 43°24' E 004°60'0 0.0
2015-Mar-14 13:33N 43°24' E 004°60'0 0.0
2015-Mar-14 12:34N 43°24' E 004°60'0 0.0
2015-Mar-14 11:34N 43°24' E 004°60'0 0.0
2015-Mar-14 10:34N 43°24' E 004°60'0 0.0
2015-Mar-14 09:34N 43°24' E 004°60'0 0.0
2015-Mar-14 08:33N 43°24' E 004°60'0 0.0
2015-Mar-14 07:33N 43°24' E 004°60'0 0.0
2015-Mar-14 06:33N 43°24' E 004°60'0 0.0
2015-Mar-14 05:34N 43°24' E 004°60'0 0.0
2015-Mar-14 04:34N 43°24' E 004°60'0 0.0
2015-Mar-14 03:33N 43°24' E 004°60'0 0.0
2015-Mar-14 02:33N 43°24' E 004°60'0 0.0
2015-Mar-14 01:34N 43°24' E 004°60'3 2.8
2015-Mar-14 00:33N 43°21' E 004°59'1110.6
2015-Mar-13 23:33N 43°11' E 005°01'3210.5
2015-Mar-13 20:28N 42°44' E 004°35'1210.2
2015-Mar-13 19:19N 42°35' E 004°26'810.0
2015-Mar-13 18:33N 42°28' E 004°20'10 9.5
2015-Mar-13 17:33N 42°22' E 004°10'1210.9
2015-Mar-13 16:26N 42°12' E 004°01'1112.0
2015-Mar-13 15:33N 42°04' E 003°52'1110.5
2015-Mar-13 14:33N 41°55' E 003°44'  
Track history (hours):
 
Tides and Currents Weather Stations Pressure Air Temp Water Temp Dewpoint Dewpoint Depression Visibility Wind Speed Wind Dir Waves Ship Positions

Mt Bomar Mars

Last reported at 2015-Mar-23 14:29 UTC. Time now 2015-Mar-26 23:47 UTC.
Position N 38°54' W 009°60'.

Length 107 m; draft 6.9 m.

Type: Ship. MMSI: 256784000.

Date/timePositionNaut miles runAvg speedWind from/ knotsBaromVisibWave heightAir tempDewpointWater temp
2015-Mar-23 14:29N 38°54' W 009°60'7 7.2
2015-Mar-23 13:33N 38°48' W 009°55'7 7.1
2015-Mar-23 12:33N 38°41' W 009°55'8 8.2
2015-Mar-23 11:33N 38°33' W 009°53'9 8.8
2015-Mar-23 10:33N 38°24' W 009°51'10 9.3
2015-Mar-23 09:28N 38°14' W 009°49'10 9.7
2015-Mar-23 08:27N 38°05' W 009°46'9 9.7
2015-Mar-23 07:31N 37°56' W 009°43'1010.1
2015-Mar-23 06:33N 37°46' W 009°40'1310.6
2015-Mar-23 05:21N 37°34' W 009°37'910.8
2015-Mar-23 04:32N 37°25' W 009°34'5210.1
2015-Mar-22 23:22N 36°39' W 009°04'911.5
2015-Mar-22 22:33N 36°37' W 008°53'1211.1
2015-Mar-22 21:31N 36°34' W 008°39'15110.5
2015-Mar-22 07:10N 35°58' W 005°37'5 8.0
2015-Mar-22 06:34N 35°59' W 005°31'8 8.2
2015-Mar-22 05:34N 36°01' W 005°21'7 6.5
2015-Mar-22 04:34N 36°03' W 005°13'21210.1
2015-Mar-21 07:32N 37°13' W 001°04'1111.3
2015-Mar-21 06:33N 37°21' W 000°54'1211.7
2015-Mar-21 05:33N 37°28' W 000°42'1211.9
2015-Mar-21 04:33N 37°36' W 000°31'1111.2
2015-Mar-21 03:32N 37°46' W 000°24'1110.9
2015-Mar-21 02:31N 37°55' W 000°16'12611.4
2015-Mar-20 15:28N 39°43' E 001°08'1010.9
2015-Mar-20 14:33N 39°52' E 001°15'1110.8
2015-Mar-20 13:33N 40°01' E 001°23'1111.3
2015-Mar-20 12:33N 40°11' E 001°30'1110.8
2015-Mar-20 11:33N 40°20' E 001°38'1110.6
2015-Mar-20 10:30N 40°28' E 001°48'1111.9
2015-Mar-20 09:33N 40°37' E 001°57'1212.4
2015-Mar-20 08:33N 40°46' E 002°08'1313.0
2015-Mar-20 07:33N 40°52' E 002°23'1312.7
2015-Mar-20 06:33N 40°59' E 002°37'1312.8
2015-Mar-20 05:32N 41°10' E 002°46'1412.6
2015-Mar-20 04:26N 41°21' E 002°57'8213.0
2015-Mar-19 22:07N 42°25' E 004°07'1212.7
2015-Mar-19 21:10N 42°34' E 004°17'1413.1
2015-Mar-19 20:06N 42°45' E 004°29'812.7
2015-Mar-19 19:27N 42°51' E 004°36'1312.3
2015-Mar-19 18:26N 43°01' E 004°48'1112.3
2015-Mar-19 17:33N 43°09' E 004°57'1111.3
2015-Mar-19 16:34N 43°20' E 004°58'8 3.8
2015-Mar-19 14:23N 43°26' E 004°50'0 0.0
2015-Mar-19 13:20N 43°26' E 004°50'0 0.0
2015-Mar-19 12:26N 43°26' E 004°50'0 0.0
2015-Mar-19 11:32N 43°26' E 004°50'0 0.0
2015-Mar-19 10:14N 43°26' E 004°50'0 0.0
2015-Mar-19 09:20N 43°26' E 004°50'0 0.0
2015-Mar-19 08:29N 43°26' E 004°50'0 0.0
2015-Mar-19 07:32N 43°26' E 004°50'0 0.0
2015-Mar-19 06:26N 43°26' E 004°50'0 0.0
2015-Mar-19 05:26N 43°26' E 004°50'0 0.0
2015-Mar-19 04:32N 43°26' E 004°50'0 0.0
2015-Mar-19 03:32N 43°26' E 004°50'0 0.0
2015-Mar-19 02:32N 43°26' E 004°50'0 0.0
2015-Mar-19 01:32N 43°26' E 004°50'0 0.0
2015-Mar-19 00:32N 43°26' E 004°50'0 0.0
2015-Mar-18 23:11N 43°26' E 004°50'0 0.0
2015-Mar-18 22:32N 43°26' E 004°50'4 4.1
2015-Mar-18 21:32N 43°25' E 004°56'0 0.0
2015-Mar-18 20:32N 43°25' E 004°56'0 0.0
2015-Mar-18 19:32N 43°25' E 004°56'0 0.0
2015-Mar-18 18:32N 43°25' E 004°56'0 0.0
2015-Mar-18 17:32N 43°25' E 004°56'0 0.0
2015-Mar-18 16:32N 43°25' E 004°56'0 0.0
2015-Mar-18 15:32N 43°25' E 004°56'0 0.0
2015-Mar-18 14:32N 43°25' E 004°56'0 0.0
2015-Mar-18 13:32N 43°25' E 004°56'0 0.0
2015-Mar-18 12:32N 43°25' E 004°56'0 0.0
2015-Mar-18 11:32N 43°25' E 004°56'0 0.0
2015-Mar-18 10:32N 43°25' E 004°56'0 0.0
2015-Mar-18 09:32N 43°25' E 004°56'0 0.1
2015-Mar-18 08:32N 43°25' E 004°55'0 0.0
2015-Mar-18 07:32N 43°25' E 004°55'0 0.0
2015-Mar-18 06:32N 43°25' E 004°55'0 0.0
2015-Mar-18 05:32N 43°25' E 004°55'0 0.0
2015-Mar-18 04:29N 43°25' E 004°55'0 0.0
2015-Mar-18 03:29N 43°25' E 004°55'0 0.0
2015-Mar-18 02:33N 43°25' E 004°55'0 0.1
2015-Mar-18 01:32N 43°25' E 004°56'0 0.0
2015-Mar-18 00:32N 43°25' E 004°56'0 0.0
2015-Mar-17 23:32N 43°25' E 004°56'0 0.0
2015-Mar-17 22:33N 43°25' E 004°56'0 0.0
2015-Mar-17 21:33N 43°25' E 004°56'0 0.0
2015-Mar-17 20:33N 43°25' E 004°56'0 0.0
2015-Mar-17 19:32N 43°25' E 004°56'0 0.0
2015-Mar-17 18:33N 43°25' E 004°56'0 0.1
2015-Mar-17 17:32N 43°25' E 004°56'0 0.0
2015-Mar-17 16:32N 43°25' E 004°56'0 0.1
2015-Mar-17 15:32N 43°25' E 004°56'0 0.0
2015-Mar-17 14:32N 43°25' E 004°56'0 0.0
2015-Mar-17 13:29N 43°25' E 004°56'0 0.0
2015-Mar-17 12:29N 43°25' E 004°56'0 0.0
2015-Mar-17 11:32N 43°25' E 004°56'0 0.0
2015-Mar-17 10:32N 43°25' E 004°56'0 0.0
2015-Mar-17 09:32N 43°25' E 004°56'0 0.0
2015-Mar-17 08:32N 43°25' E 004°55'0 0.0
2015-Mar-17 07:32N 43°25' E 004°56'0 0.0
2015-Mar-17 06:32N 43°25' E 004°56'0 0.0
2015-Mar-17 05:32N 43°25' E 004°56'0 0.1
2015-Mar-17 04:32N 43°25' E 004°56'0 0.1
2015-Mar-17 03:32N 43°25' E 004°56'0 0.0
2015-Mar-17 02:32N 43°25' E 004°55'0 0.0
2015-Mar-17 01:32N 43°25' E 004°55'0 0.1
2015-Mar-17 00:32N 43°25' E 004°55'0 0.0
2015-Mar-16 23:32N 43°25' E 004°55'0 0.0
2015-Mar-16 22:32N 43°25' E 004°55'0 0.0
2015-Mar-16 21:32N 43°25' E 004°55'0 0.0
2015-Mar-16 20:32N 43°25' E 004°55'0 0.0
2015-Mar-16 19:32N 43°25' E 004°56'0 0.0
2015-Mar-16 18:32N 43°25' E 004°56'0 0.1
2015-Mar-16 17:32N 43°25' E 004°56'0 0.0
2015-Mar-16 16:32N 43°25' E 004°56'0 0.1
2015-Mar-16 15:32N 43°25' E 004°56'0 0.0
2015-Mar-16 14:32N 43°25' E 004°56'0 0.0
2015-Mar-16 13:32N 43°25' E 004°56'0 0.0
2015-Mar-16 12:32N 43°25' E 004°56'2 1.7
2015-Mar-16 11:32N 43°25' E 004°53'0 0.0
2015-Mar-16 10:32N 43°25' E 004°53'0 0.0
2015-Mar-16 09:32N 43°25' E 004°53'0 0.0
2015-Mar-16 08:32N 43°25' E 004°53'0 0.0
2015-Mar-16 07:32N 43°25' E 004°53'2 1.7
2015-Mar-16 06:34N 43°25' E 004°56'0 0.2
2015-Mar-16 05:31N 43°25' E 004°56'0 0.0
2015-Mar-16 04:31N 43°25' E 004°55'0 0.0
2015-Mar-16 03:28N 43°25' E 004°55'0 0.0
2015-Mar-16 02:31N 43°25' E 004°55'0 0.0
2015-Mar-16 01:31N 43°25' E 004°55'0 0.0
2015-Mar-16 00:33N 43°25' E 004°55'0 0.0
2015-Mar-15 23:33N 43°25' E 004°55'0 0.1
2015-Mar-15 22:33N 43°25' E 004°55'0 0.1
2015-Mar-15 21:33N 43°25' E 004°56'0 0.0
2015-Mar-15 20:33N 43°25' E 004°56'0 0.0
2015-Mar-15 19:33N 43°25' E 004°56'2 1.7
2015-Mar-15 18:33N 43°24' E 004°54'1 1.2
2015-Mar-15 17:32N 43°25' E 004°53'0 0.0
2015-Mar-15 16:29N 43°25' E 004°53'0 0.0
2015-Mar-15 15:32N 43°25' E 004°53'0 0.0
2015-Mar-15 14:29N 43°25' E 004°53'0 0.0
2015-Mar-15 13:20N 43°25' E 004°53'0 0.0
2015-Mar-15 12:33N 43°25' E 004°53'3 2.9
2015-Mar-15 11:33N 43°24' E 004°57'2 2.1
2015-Mar-15 10:33N 43°24' E 004°60'0 0.0
2015-Mar-15 09:33N 43°24' E 004°60'0 0.0
2015-Mar-15 08:33N 43°24' E 004°60'0 0.0
2015-Mar-15 07:33N 43°24' E 004°60'0 0.0
2015-Mar-15 06:34N 43°24' E 004°60'0 0.0
2015-Mar-15 05:33N 43°24' E 004°60'0 0.0
2015-Mar-15 04:33N 43°24' E 004°60'0 0.0
2015-Mar-15 03:34N 43°24' E 004°60'0 0.0
2015-Mar-15 02:34N 43°24' E 004°60'0 0.0
2015-Mar-15 01:33N 43°24' E 004°60'0 0.0
2015-Mar-15 00:33N 43°24' E 004°60'0 0.0
2015-Mar-14 23:33N 43°24' E 004°60'0 0.0
2015-Mar-14 22:33N 43°24' E 004°60'0 0.0
2015-Mar-14 21:33N 43°24' E 004°60'0 0.0
2015-Mar-14 20:33N 43°24' E 004°60'0 0.0
2015-Mar-14 19:34N 43°24' E 004°60'0 0.0
2015-Mar-14 18:34N 43°24' E 004°60'0 0.0
2015-Mar-14 17:34N 43°24' E 004°60'0 0.0
2015-Mar-14 16:34N 43°24' E 004°60'0 0.0
2015-Mar-14 15:33N 43°24' E 004°60'0 0.0
2015-Mar-14 14:34N 43°24' E 004°60'0 0.0
2015-Mar-14 13:33N 43°24' E 004°60'0 0.0
2015-Mar-14 12:34N 43°24' E 004°60'0 0.0
2015-Mar-14 11:34N 43°24' E 004°60'0 0.0
2015-Mar-14 10:34N 43°24' E 004°60'0 0.0
2015-Mar-14 09:34N 43°24' E 004°60'0 0.0
2015-Mar-14 08:33N 43°24' E 004°60'0 0.0
2015-Mar-14 07:33N 43°24' E 004°60'0 0.0
2015-Mar-14 06:33N 43°24' E 004°60'0 0.0
2015-Mar-14 05:34N 43°24' E 004°60'0 0.0
2015-Mar-14 04:34N 43°24' E 004°60'0 0.0
2015-Mar-14 03:33N 43°24' E 004°60'0 0.0
2015-Mar-14 02:33N 43°24' E 004°60'0 0.0
2015-Mar-14 01:34N 43°24' E 004°60'3 2.8
2015-Mar-14 00:33N 43°21' E 004°59'1110.6
2015-Mar-13 23:33N 43°11' E 005°01'3210.5
2015-Mar-13 20:28N 42°44' E 004°35'1210.2
2015-Mar-13 19:19N 42°35' E 004°26'810.0
2015-Mar-13 18:33N 42°28' E 004°20'10 9.5
2015-Mar-13 17:33N 42°22' E 004°10'1210.9
2015-Mar-13 16:26N 42°12' E 004°01'1112.0
2015-Mar-13 15:33N 42°04' E 003°52'1110.5
2015-Mar-13 14:33N 41°55' E 003°44'  

Dump ship's entire track history